Terminal Aerodrome Forecast
Issued by NWS Louisville, KY

Home | Current Version | Previous Version | Text Only | Print | Product List | Glossary On
Versions: 1 2 3 4 5 6 7 8 9 10 11 12
000
FTUS43 KLMK 031120
TAFBWG
TAF
KBWG 031120Z 0312/0412 00000KT P6SM OVC250
     FM031500 05005KT P6SM OVC160
     FM032300 00000KT P6SM OVC070
     FM040700 07003KT P6SM -RA OVC040=

USA.gov is the U.S. government's official web portal to all federal, state and local government web resources and services.